SEKCJA WYDRUKÓW, pokaż »

METAR EPBY 212330Z 08011KT CAVOK 18/12 Q1011=

METAR EPGD 212330Z 06006KT CAVOK 16/13 Q1014 =

METAR EPKK 212330Z 04005KT CAVOK 17/13 Q1008 =

METAR EPKT 212330Z 08004KT CAVOK 16/12 Q1009 =

METAR EPLB 212330Z 06006KT CAVOK 14/13 Q1011 =

METAR EPLL 212330Z 07009KT CAVOK 19/11 Q1010 =

METAR EPML 212330Z NIL=

METAR EPMO 212330Z 07008KT CAVOK 16/12 Q1012 =

METAR EPPO 212330Z 07009KT CAVOK 18/11 Q1009 =

METAR EPRA 212330Z 09007KT CAVOK 16/13 Q1011=

METAR EPRZ 212330Z 06005KT CAVOK 16/13 Q1010 =

METAR EPSC 212330Z 06008KT CAVOK 18/13 Q1010 =

METAR EPSY 212330Z 05005KT CAVOK 14/12 Q1014=

METAR EPWA 212330Z 08010KT CAVOK 19/12 Q1012 NOSIG=

METAR EPWR 212330Z 09010KT CAVOK 21/12 Q1007 =

METAR EPZG 212330Z NIL=
 METAR EPRA
Lokalizacja:EPRA Radom Sadków
Czas:23:30 UTC
Średni kierunek wiatru:90 °
Średnia prędkość wiatru:7 węzłów
CAVOK:Widzialność 10 km i więcej, zjawisko: NIL, zachmurzenie: NSC
Temperatura powietrza:16 °C
Temperatura punktu rosy:13 °C
Ciśnienie QNH:1011 hPa